Impacts METAR Board
IDs:

KFLL - Ft Lauderdale-Hollyw, FL, US

Updated at: 0600 UTC 22 Oct 2018
Potential Impact None Slight Moderate High
Time 21/18Z 21/19Z 21/20Z 21/21Z 21/22Z 21/23Z 22/00Z 22/01Z 22/02Z 22/03Z 22/04Z 22/05Z 22/06Z
Temp86 86 85 84 81 79 79 78 79 79 79 79 78
Dewpt73 75 76 75 75 75 74 74 72 72 70 70 70
Altim29.96 29.95 29.95 29.95 29.96 29.98 29.99 30.01 30.02 30.03 30.02 30.02 30.01
VIS10 10 10 10 10 10 10 10 10 10 10 10 10
CIG-- -- -- -- -- 85 -- -- 39 55 -- -- --
CoverSCTFEWSCTSCTFEWBKNSCTSCTBKNBKNSCTSCTSCT
FltCatVFRVFRVFRVFRVFRVFRVFRVFRVFRVFRVFRVFRVFR
WX--------------------------
WDir70704060503010204060505050
WSpd10 11 11 12 14 7 7 6 10 12 9 10 9
WGst-- -- -- 19 18 17 17 -- -- -- 18 -- --
Raw hourly METARs
KFLL 211753Z 07010KT 10SM SCT060 30/23 A2996 RMK AO2 SLP146 T03000228 10317 20256 58019
KFLL 211853Z 07011KT 10SM FEW055 30/24 A2995 RMK AO2 SLP141 T03000239
KFLL 211953Z 04011KT 10SM SCT050 29/24 A2995 RMK AO2 SLP141 T02940244
KFLL 212053Z 06012G19KT 10SM SCT055 29/24 A2995 RMK AO2 SLP142 T02890239 55004
KFLL 212153Z 05014G18KT 10SM FEW045 27/24 A2996 RMK AO2 SLP146 T02720239
KFLL 212253Z 03007G17KT 10SM SCT021 BKN085 26/24 A2998 RMK AO2 SLP152 T02610239
KFLL 212353Z 01007G17KT 10SM SCT025 SCT060 26/23 A2999 RMK AO2 SLP156 T02610233 10306 20256 52014
KFLL 220053Z 02006KT 10SM FEW022 FEW031 SCT070 26/23 A3001 RMK AO2 SLP160 T02560233
KFLL 220153Z 04010KT 10SM SCT026 BKN039 BKN070 26/22 A3002 RMK AO2 SLP164 T02610222
KFLL 220253Z 06012KT 10SM SCT030 BKN055 26/22 A3003 RMK AO2 SLP167 T02610222 51011
KFLL 220353Z 05009G18KT 10SM SCT030 SCT046 26/21 A3002 RMK AO2 SLP166 T02610211
KFLL 220453Z 05010KT 10SM FEW030 SCT047 26/21 A3002 RMK AO2 SLP164 T02610211 403170250
KFLL 220553Z 05009KT 10SM FEW031 SCT044 26/21 A3001 RMK AO2 SLP163 T02560211 10267 20256 58004



Page loaded:  06:43 UTC  |   11:43 PM Pacific  |   12:43 AM Mountain  |   01:43 AM Central  |   02:43 AM Eastern

 

ADVISORIES

FORECASTS

FORECASTS

OBSERVATIONS

USER TOOLS

ABOUT US